createdAt,value
2019-04-24T00:04:03.427Z,98579.15
2019-04-24T00:06:29.951Z,98579.45
2019-04-24T00:08:58.922Z,98584.83
2019-04-24T00:11:44.265Z,98584.15
2019-04-24T00:14:23.897Z,98592.16
2019-04-24T00:17:04.250Z,98589.15
2019-04-24T00:19:27.695Z,98581.45
2019-04-24T00:22:04.932Z,98587.25
2019-04-24T00:27:15.427Z,98594.09
2019-04-24T00:29:38.726Z,98590.05
2019-04-24T00:32:02.361Z,98598.66
2019-04-24T00:37:09.579Z,98586.25
2019-04-24T00:39:34.977Z,98588.50
2019-04-24T00:44:32.658Z,98602.38
2019-04-24T00:47:15.866Z,98606.77
2019-04-24T00:49:39.932Z,98612.22
2019-04-24T00:52:09.367Z,98612.75
2019-04-24T00:57:33.672Z,98602.95
2019-04-24T00:59:41.643Z,98598.09
2019-04-24T01:08:14.543Z,98610.59
2019-04-24T01:11:11.780Z,98611.13
2019-04-24T01:13:33.227Z,98611.73
2019-04-24T01:18:37.071Z,98619.40
2019-04-24T01:21:14.504Z,98624.28
2019-04-24T01:23:34.798Z,98623.59
2019-04-24T01:34:17.789Z,98630.19
2019-04-24T01:44:58.322Z,98621.23
2019-04-24T01:49:50.037Z,98628.18
2019-04-24T01:52:40.441Z,98628.91
2019-04-24T01:54:58.820Z,98635.85
2019-04-24T01:57:29.175Z,98639.58
2019-04-24T01:59:54.956Z,98647.55
2019-04-24T02:05:00.470Z,98650.67
2019-04-24T02:07:39.062Z,98653.97
2019-04-24T02:17:59.016Z,98651.33
2019-04-24T02:23:06.678Z,98660.27
2019-04-24T02:25:44.899Z,98673.19
2019-04-24T02:28:18.773Z,98671.95
2019-04-24T02:31:07.841Z,98667.50
2019-04-24T02:36:31.924Z,98674.62
2019-04-24T02:41:37.575Z,98677.09
2019-04-24T02:43:57.090Z,98678.46
2019-04-24T02:49:15.301Z,98672.78
2019-04-24T03:01:29.676Z,98681.25
2019-04-24T03:04:01.548Z,98684.55
2019-04-24T03:09:08.059Z,98686.84
2019-04-24T03:14:46.787Z,98686.54
2019-04-24T03:25:05.643Z,98701.62
2019-04-24T03:30:02.625Z,98702.64
2019-04-24T03:40:57.601Z,98708.91
2019-04-24T03:45:24.292Z,98707.05
2019-04-24T03:51:45.073Z,98708.27
2019-04-24T04:04:31.826Z,98714.86
2019-04-24T04:07:01.799Z,98712.45
2019-04-24T04:09:39.679Z,98711.11
2019-04-24T04:12:12.800Z,98716.55
2019-04-24T04:27:34.407Z,98740.83
2019-04-24T04:30:10.106Z,98745.27
2019-04-24T04:35:29.715Z,98753.47
2019-04-24T04:41:14.100Z,98759.95
2019-04-24T04:43:49.018Z,98769.85
2019-04-24T04:46:28.860Z,98782.34
2019-04-24T04:48:58.403Z,98785.83
2019-04-24T04:59:26.922Z,98789.69
2019-04-24T05:02:44.737Z,98796.93
2019-04-24T05:15:15.030Z,98805.91
2019-04-24T05:20:00.659Z,98819.95
2019-04-24T05:22:34.249Z,98836.71
2019-04-24T05:25:19.519Z,98848.20
2019-04-24T05:27:45.192Z,98849.22
2019-04-24T05:41:10.040Z,98868.63
2019-04-24T05:46:24.442Z,98860.55
2019-04-24T05:52:00.529Z,98862.25
2019-04-24T05:54:44.324Z,98876.34
2019-04-24T06:00:14.596Z,98880.11
2019-04-24T06:02:47.893Z,98888.42
2019-04-24T06:05:21.154Z,98876.72
2019-04-24T06:08:07.079Z,98866.16
2019-04-24T06:13:44.801Z,98853.30
2019-04-24T06:22:18.629Z,98878.94
2019-04-24T06:29:53.431Z,98898.03
2019-04-24T06:38:18.498Z,98908.52
2019-04-24T06:43:41.519Z,98915.23
2019-04-24T06:46:10.549Z,98915.41
2019-04-24T06:48:41.158Z,98914.66
2019-04-24T06:51:16.296Z,98914.97
2019-04-24T06:54:00.821Z,98928.11
2019-04-24T06:59:12.479Z,98906.73
2019-04-24T07:01:57.854Z,98900.71
2019-04-24T07:04:45.484Z,98911.69
2019-04-24T07:06:49.237Z,98920.98
2019-04-24T07:09:45.630Z,98920.73
2019-04-24T07:12:24.426Z,98922.78
2019-04-24T07:17:58.673Z,98896.29
2019-04-24T07:20:34.664Z,98897.82
2019-04-24T07:23:26.398Z,98912.12
2019-04-24T07:28:35.089Z,98915.88
2019-04-24T07:31:41.558Z,98912.53
2019-04-24T07:34:08.814Z,98923.40
2019-04-24T07:36:52.363Z,98934.39
2019-04-24T07:39:36.970Z,98945.25
2019-04-24T07:44:29.141Z,98975.49
2019-04-24T07:47:03.045Z,98989.85
2019-04-24T07:52:09.700Z,98999.47
2019-04-24T07:57:24.922Z,99008.73
2019-04-24T08:02:49.713Z,99001.72
2019-04-24T08:07:50.584Z,99016.28
2019-04-24T08:15:59.909Z,99018.17
2019-04-24T08:18:27.840Z,99015.03
2019-04-24T08:21:07.008Z,99016.30
2019-04-24T08:31:31.349Z,99022.86
2019-04-24T08:34:22.442Z,99036.49
2019-04-24T08:36:37.268Z,99046.48
2019-04-24T08:42:44.889Z,99046.06
2019-04-24T08:45:12.815Z,99038.95
2019-04-24T08:47:53.913Z,99045.23
2019-04-24T08:52:50.828Z,99056.81
2019-04-24T08:55:20.113Z,99049.84
2019-04-24T09:00:20.077Z,99058.04
2019-04-24T09:03:32.577Z,99056.16
2019-04-24T09:08:34.998Z,99048.34
2019-04-24T09:16:40.823Z,99045.12
2019-04-24T09:19:02.745Z,99046.53
2019-04-24T09:21:35.242Z,99053.39
2019-04-24T09:27:13.046Z,99065.21
2019-04-24T09:29:57.212Z,99059.73
2019-04-24T09:34:51.574Z,99052.91
2019-04-24T09:37:25.058Z,99053.55
2019-04-24T09:43:11.254Z,99058.76
2019-04-24T09:55:51.479Z,99038.05
2019-04-24T09:58:34.160Z,99030.69
2019-04-24T10:01:39.930Z,99026.09
2019-04-24T10:04:20.662Z,99016.02
2019-04-24T10:07:05.532Z,99011.17
2019-04-24T10:09:15.119Z,99015.84
2019-04-24T10:14:44.597Z,99013.02
2019-04-24T10:22:49.193Z,99002.61
2019-04-24T10:25:15.823Z,98996.89
2019-04-24T10:27:58.173Z,98993.08
2019-04-24T10:30:43.728Z,98987.31
2019-04-24T10:33:23.687Z,98981.17
2019-04-24T10:36:01.836Z,98981.67
2019-04-24T10:38:40.231Z,98976.91
2019-04-24T10:41:36.965Z,98976.20
2019-04-24T10:44:28.590Z,98973.57
2019-04-24T10:47:23.467Z,98967.28
2019-04-24T10:52:47.769Z,98963.44
2019-04-24T10:55:19.886Z,98961.71
2019-04-24T10:57:54.785Z,98956.59
2019-04-24T11:00:27.975Z,98948.88
2019-04-24T11:03:27.296Z,98945.34
2019-04-24T11:05:56.162Z,98949.55
2019-04-24T11:08:57.717Z,98943.80
2019-04-24T11:11:50.881Z,98940.39
2019-04-24T11:20:15.602Z,98928.91
2019-04-24T11:23:15.021Z,98939.42
2019-04-24T11:28:49.315Z,98941.11
2019-04-24T11:31:40.016Z,98930.94
2019-04-24T11:42:30.578Z,98911.98
2019-04-24T11:45:22.901Z,98906.70
2019-04-24T11:55:39.101Z,98889.60
2019-04-24T12:00:55.421Z,98892.75
2019-04-24T12:04:01.861Z,98900.28
2019-04-24T12:06:34.249Z,98905.77
2019-04-24T12:11:35.970Z,98898.19
2019-04-24T12:14:19.252Z,98882.95
2019-04-24T12:16:53.335Z,98884.27
2019-04-24T12:19:49.499Z,98877.18
2019-04-24T12:22:10.445Z,98869.19
2019-04-24T12:27:17.211Z,98878.64
2019-04-24T12:29:48.662Z,98874.58
2019-04-24T12:32:43.459Z,98873.30
2019-04-24T12:35:29.665Z,98869.36
2019-04-24T12:40:48.800Z,98856.69
2019-04-24T12:45:56.718Z,98843.11
2019-04-24T12:48:37.366Z,98841.41
2019-04-24T12:50:56.329Z,98844.92
2019-04-24T12:53:42.102Z,98835.35
2019-04-24T12:56:31.997Z,98831.45
2019-04-24T12:59:24.753Z,98834.70
2019-04-24T13:06:53.839Z,98825.18
2019-04-24T13:12:44.366Z,98838.47
2019-04-24T13:20:03.165Z,98835.82
2019-04-24T13:22:42.002Z,98825.64
2019-04-24T13:28:51.935Z,98830.33
2019-04-24T13:33:43.087Z,98831.87
2019-04-24T13:38:50.967Z,98833.20
2019-04-24T13:41:45.764Z,98826.53
2019-04-24T13:46:39.502Z,98825.83
2019-04-24T13:51:25.606Z,98832.08
2019-04-24T13:54:03.825Z,98826.60
2019-04-24T13:56:24.851Z,98816.30
2019-04-24T13:58:58.601Z,98827.75
2019-04-24T14:01:43.442Z,98826.31
2019-04-24T14:06:42.564Z,98811.41
2019-04-24T14:12:30.544Z,98809.50
2019-04-24T14:14:08.653Z,98796.84
2019-04-24T14:22:05.880Z,98784.81
2019-04-24T14:24:54.971Z,98789.34
2019-04-24T14:27:11.547Z,98798.92
2019-04-24T14:29:48.921Z,98788.80
2019-04-24T14:32:14.574Z,98792.93
2019-04-24T14:34:55.392Z,98786.91
2019-04-24T14:37:15.761Z,98783.33
2019-04-24T14:45:08.582Z,98781.71
2019-04-24T14:47:34.726Z,98770.88
2019-04-24T14:50:16.219Z,98766.02
2019-04-24T14:52:40.509Z,98757.62
2019-04-24T15:02:49.609Z,98745.34
2019-04-24T15:10:25.337Z,98749.80
2019-04-24T15:15:18.508Z,98749.75
2019-04-24T15:18:08.546Z,98742.28
2019-04-24T15:23:05.602Z,98748.35
2019-04-24T15:28:13.983Z,98747.73
2019-04-24T15:33:18.125Z,98739.20
2019-04-24T15:36:03.089Z,98741.59
2019-04-24T15:40:54.106Z,98720.77
2019-04-24T15:45:54.587Z,98710.16
2019-04-24T15:48:42.921Z,98700.39
2019-04-24T15:50:56.691Z,98695.76
2019-04-24T15:52:53.162Z,98698.80
2019-04-24T15:55:31.485Z,98695.90
2019-04-24T15:58:05.489Z,98703.77
2019-04-24T16:03:41.105Z,98714.77
2019-04-24T16:05:56.404Z,98731.19
2019-04-24T16:08:25.914Z,98757.14
2019-04-24T16:10:55.405Z,98800.39
2019-04-24T16:13:32.582Z,98829.13
2019-04-24T16:16:23.874Z,98825.09
2019-04-24T16:19:16.183Z,98824.45
2019-04-24T16:21:29.704Z,98837.31
2019-04-24T16:26:34.136Z,98842.78
2019-04-24T16:31:47.658Z,98871.17
2019-04-24T16:36:47.221Z,98904.63
2019-04-24T16:39:09.462Z,98908.69
2019-04-24T16:49:28.980Z,98970.81
2019-04-24T16:52:14.331Z,98981.50
2019-04-24T16:54:21.617Z,99024.47
2019-04-24T16:57:01.749Z,99040.17
2019-04-24T16:59:21.970Z,99047.83
2019-04-24T17:04:55.597Z,99088.63
2019-04-24T17:09:51.120Z,99097.38
2019-04-24T17:12:29.193Z,99094.04
2019-04-24T17:14:50.530Z,99123.40
2019-04-24T17:22:49.827Z,99111.66
2019-04-24T17:25:11.522Z,99152.21
2019-04-24T17:27:40.961Z,99201.11
2019-04-24T17:32:50.711Z,99192.30
2019-04-24T17:35:22.537Z,99238.21
2019-04-24T17:37:20.114Z,99353.73
2019-04-24T17:39:58.076Z,99391.75
2019-04-24T17:42:47.585Z,99367.26
2019-04-24T17:45:32.356Z,99322.28
2019-04-24T17:50:32.147Z,99304.64
2019-04-24T17:53:08.293Z,99319.73
2019-04-24T17:55:52.077Z,99316.33
2019-04-24T17:57:46.386Z,99329.49
2019-04-24T18:00:12.384Z,99341.12
2019-04-24T18:02:42.450Z,99359.02
2019-04-24T18:05:13.049Z,99358.84
2019-04-24T18:07:42.827Z,99380.43
2019-04-24T18:10:13.214Z,99408.60
2019-04-24T18:12:43.208Z,99429.69
2019-04-24T18:15:13.140Z,99464.09
2019-04-24T18:17:43.036Z,99477.50
2019-04-24T18:20:13.542Z,99491.29
2019-04-24T18:22:43.446Z,99486.84
2019-04-24T18:25:36.713Z,99501.62
2019-04-24T18:28:06.382Z,99479.02
2019-04-24T18:30:36.070Z,99498.53
2019-04-24T18:33:07.374Z,99534.38
2019-04-24T18:35:39.127Z,99549.45
2019-04-24T18:38:12.817Z,99551.60
2019-04-24T18:40:41.378Z,99530.58
2019-04-24T18:43:12.221Z,99512.06
2019-04-24T18:45:43.724Z,99497.70
2019-04-24T18:48:13.754Z,99526.09
2019-04-24T18:50:43.679Z,99548.14
2019-04-24T18:53:13.923Z,99543.08
2019-04-24T18:55:43.800Z,99554.34
2019-04-24T18:58:14.611Z,99538.22
2019-04-24T19:00:45.142Z,99555.06
2019-04-24T19:03:16.315Z,99558.98
2019-04-24T19:05:47.151Z,99549.17
2019-04-24T19:08:17.602Z,99546.48
2019-04-24T19:10:47.430Z,99546.86
2019-04-24T19:13:17.722Z,99517.42
2019-04-24T19:15:47.569Z,99521.45
2019-04-24T19:18:17.129Z,99546.71
2019-04-24T19:20:46.599Z,99534.20
2019-04-24T19:23:16.248Z,99538.17
2019-04-24T19:25:45.734Z,99523.84
2019-04-24T19:28:17.058Z,99537.20
2019-04-24T19:30:46.572Z,99559.58
2019-04-24T19:33:16.250Z,99566.91
2019-04-24T19:35:46.598Z,99576.30
2019-04-24T19:38:16.127Z,99577.23
2019-04-24T19:40:45.588Z,99573.63
2019-04-24T19:43:15.430Z,99574.56
2019-04-24T19:45:45.015Z,99588.95
2019-04-24T19:48:15.211Z,99578.27
2019-04-24T19:50:44.702Z,99568.90
2019-04-24T19:53:20.357Z,99556.16
2019-04-24T19:55:45.574Z,99525.58
2019-04-24T19:58:15.891Z,99497.52
2019-04-24T20:00:45.437Z,99482.05
2019-04-24T20:03:16.044Z,99507.58
2019-04-24T20:05:45.933Z,99531.69
2019-04-24T20:08:16.292Z,99489.51
2019-04-24T20:10:55.991Z,99484.29
2019-04-24T20:13:25.706Z,99492.39
2019-04-24T20:15:55.415Z,99513.78
2019-04-24T20:18:25.207Z,99526.72
2019-04-24T20:20:54.969Z,99531.17
2019-04-24T20:23:34.554Z,99516.59
2019-04-24T20:25:56.255Z,99512.16
2019-04-24T20:28:26.080Z,99534.20
2019-04-24T20:30:55.901Z,99536.56
2019-04-24T20:33:25.595Z,99582.30
2019-04-24T20:35:55.271Z,99595.55
2019-04-24T20:38:25.006Z,99569.92
2019-04-24T20:40:54.713Z,99571.09
2019-04-24T20:43:24.754Z,99564.91
2019-04-24T20:45:54.482Z,99551.53
2019-04-24T20:48:24.181Z,99539.13
2019-04-24T20:50:53.872Z,99533.56
2019-04-24T20:53:24.608Z,99512.00
2019-04-24T20:55:55.025Z,99506.53
2019-04-24T20:58:26.019Z,99501.17
2019-04-24T21:00:55.975Z,99483.92
2019-04-24T21:03:26.156Z,99485.78
2019-04-24T21:06:22.316Z,99496.98
2019-04-24T21:08:58.730Z,99481.92
2019-04-24T21:11:29.080Z,99489.39
2019-04-24T21:13:58.869Z,99481.84
2019-04-24T21:16:29.130Z,99474.77
2019-04-24T21:18:58.844Z,99479.97
2019-04-24T21:21:28.440Z,99491.16
2019-04-24T21:23:58.175Z,99495.11
2019-04-24T21:26:28.603Z,99487.08
2019-04-24T21:28:59.009Z,99482.70
2019-04-24T21:31:28.688Z,99475.98
2019-04-24T21:33:58.332Z,99458.64
2019-04-24T21:36:28.227Z,99453.20
2019-04-24T21:38:58.254Z,99449.40
2019-04-24T21:41:27.963Z,99452.91
2019-04-24T21:43:57.849Z,99450.11
2019-04-24T21:46:28.169Z,99446.93
2019-04-24T21:48:57.975Z,99445.31
2019-04-24T21:51:27.813Z,99440.61
2019-04-24T21:54:04.267Z,99438.47
2019-04-24T21:56:29.076Z,99446.52
2019-04-24T21:58:58.771Z,99448.31
2019-04-24T22:01:52.073Z,99451.32
2019-04-24T22:04:35.603Z,99448.84
2019-04-24T22:07:16.567Z,99437.28
2019-04-24T22:09:46.494Z,99432.91
2019-04-24T22:12:16.782Z,99435.55
2019-04-24T22:14:46.585Z,99429.48
2019-04-24T22:17:16.415Z,99438.53
2019-04-24T22:19:46.227Z,99444.56
2019-04-24T22:22:26.025Z,99466.28
2019-04-24T22:25:23.441Z,99484.11
2019-04-24T22:27:53.341Z,99491.23
2019-04-24T22:30:37.409Z,99499.43
2019-04-24T22:33:07.035Z,99503.07
2019-04-24T22:35:41.960Z,99513.95
2019-04-24T22:38:12.523Z,99521.13
2019-04-24T22:41:06.970Z,99527.34
2019-04-24T22:43:36.663Z,99527.36
2019-04-24T22:46:06.140Z,99530.06
2019-04-24T22:48:35.567Z,99519.94
2019-04-24T22:51:04.961Z,99514.77
2019-04-24T22:53:35.119Z,99530.40
2019-04-24T22:56:04.526Z,99513.05
2019-04-24T22:58:34.833Z,99503.06
2019-04-24T23:01:07.028Z,99524.84
2019-04-24T23:03:36.983Z,99517.28
2019-04-24T23:06:06.604Z,99510.20
2019-04-24T23:08:37.438Z,99526.80
2019-04-24T23:11:06.953Z,99511.73
2019-04-24T23:13:36.453Z,99512.17
2019-04-24T23:16:06.441Z,99539.40
2019-04-24T23:18:36.313Z,99521.75
2019-04-24T23:21:27.891Z,99528.30
2019-04-24T23:24:10.850Z,99520.34
2019-04-24T23:26:45.530Z,99512.50
2019-04-24T23:29:23.971Z,99516.67
2019-04-24T23:32:24.600Z,99509.79
2019-04-24T23:34:54.784Z,99503.56
2019-04-24T23:37:24.181Z,99511.56
2019-04-24T23:39:53.587Z,99517.46
2019-04-24T23:42:22.958Z,99515.13
2019-04-24T23:44:52.390Z,99502.18
2019-04-24T23:47:21.765Z,99499.50
2019-04-24T23:49:51.883Z,99502.95
2019-04-24T23:52:22.328Z,99497.85
2019-04-24T23:55:02.797Z,99502.91
2019-04-24T23:57:22.873Z,99497.12
2019-04-24T23:59:52.279Z,99497.95
